Time;durP1;ratioP1;P1;durP2;ratioP2;P2;SDS_P1;SDS_P2;PMS_P1;PMS_P2;Temp;Humidity;BMP_temperature;BMP_pressure;BME280_temperature;BME280_humidity;BME280_pressure;Samples;Min_cycle;Max_cycle;Signal;HPM_P1;HPM_P2
2023/03/27 00:01:55;;;;;;;7.60;3.90;;;9.70;99.90;;;;;;5031816;28;20044;-77
2023/03/27 00:04:22;;;;;;;3.95;3.53;;;9.80;99.90;;;;;;5033361;28;20032;-78
2023/03/27 00:06:48;;;;;;;5.90;3.83;;;9.80;99.90;;;;;;5032302;28;20493;-78
2023/03/27 00:09:15;;;;;;;5.00;3.63;;;9.80;99.90;;;;;;5033221;28;20026;-78
2023/03/27 00:11:42;;;;;;;4.43;3.92;;;9.70;99.90;;;;;;5033154;28;20049;-78
2023/03/27 00:14:08;;;;;;;5.50;4.00;;;9.70;99.90;;;;;;5013175;28;20037;-78
2023/03/27 00:16:34;;;;;;;7.55;4.32;;;9.60;99.90;;;;;;5011792;28;20033;-78
2023/03/27 00:19:00;;;;;;;6.18;4.38;;;9.60;99.90;;;;;;5012314;28;20032;-78
2023/03/27 00:21:27;;;;;;;7.68;4.00;;;9.60;99.90;;;;;;5012101;28;20053;-78
2023/03/27 00:23:53;;;;;;;6.50;4.25;;;9.60;99.90;;;;;;5011826;28;20034;-78
2023/03/27 00:26:20;;;;;;;9.90;4.68;;;9.50;99.90;;;;;;5018256;28;20022;-78
2023/03/27 00:28:47;;;;;;;4.63;4.22;;;9.60;99.90;;;;;;5031450;28;20045;-78
2023/03/27 00:31:14;;;;;;;5.45;4.40;;;9.60;99.90;;;;;;5031321;28;20041;-78
2023/03/27 00:33:41;;;;;;;6.45;4.30;;;9.60;99.90;;;;;;5031623;28;20044;-78
2023/03/27 00:36:08;;;;;;;6.95;4.15;;;9.60;99.90;;;;;;5031583;28;20040;-78
2023/03/27 00:38:34;;;;;;;5.90;4.07;;;9.60;99.90;;;;;;5031477;28;20397;-78
2023/03/27 00:41:00;;;;;;;7.97;4.35;;;9.60;99.90;;;;;;5032751;28;20502;-78
2023/03/27 00:43:28;;;;;;;8.10;4.68;;;9.60;99.90;;;;;;5032376;28;20063;-78
2023/03/27 00:46:06;;;;;;;8.27;4.65;;;9.60;99.90;;;;;;5032324;28;20025;-78
2023/03/27 00:48:34;;;;;;;7.35;4.60;;;9.60;99.90;;;;;;5016215;28;20386;-78
2023/03/27 00:51:00;;;;;;;5.70;4.78;;;9.50;99.90;;;;;;5032721;28;20040;-78
2023/03/27 00:53:27;;;;;;;7.25;4.70;;;9.50;99.90;;;;;;5015117;28;20048;-78
2023/03/27 00:55:55;;;;;;;5.22;4.22;;;9.50;99.90;;;;;;5031394;28;20030;-78
2023/03/27 00:58:26;;;;;;;9.25;4.90;;;9.50;99.90;;;;;;5014782;28;20605;-78
2023/03/27 01:00:52;;;;;;;6.90;4.13;;;9.50;99.90;;;;;;5030679;28;20044;-78
2023/03/27 01:03:19;;;;;;;12.73;4.75;;;9.50;99.90;;;;;;5031225;28;20030;-78
2023/03/27 01:05:45;;;;;;;7.25;4.18;;;9.50;99.90;;;;;;5031145;28;20052;-78
2023/03/27 01:08:12;;;;;;;11.88;4.72;;;9.50;99.90;;;;;;5031290;28;20136;-78
2023/03/27 01:10:58;;;;;;;10.15;5.07;;;9.40;99.90;;;;;;5031045;28;20395;-78
2023/03/27 01:13:53;;;;;;;9.48;4.82;;;9.40;99.90;;;;;;5017224;28;20402;-78
2023/03/27 01:16:31;;;;;;;11.18;5.13;;;9.50;99.90;;;;;;4994574;28;20057;-78
2023/03/27 01:19:20;;;;;;;9.90;4.93;;;9.50;99.90;;;;;;5028178;28;20045;-78
2023/03/27 01:21:52;;;;;;;8.05;4.18;;;9.60;99.90;;;;;;5012316;28;20045;-78
2023/03/27 01:24:46;;;;;;;9.50;4.88;;;9.70;99.90;;;;;;5012372;28;20034;-78
2023/03/27 01:27:24;;;;;;;9.85;4.70;;;9.80;99.90;;;;;;5024302;28;20025;-78
2023/03/27 01:30:49;;;;;;;11.02;4.85;;;9.80;99.90;;;;;;5030975;28;20378;-78
2023/03/27 01:33:33;;;;;;;13.30;5.20;;;10.00;99.90;;;;;;4970266;28;20031;-78
2023/03/27 01:36:07;;;;;;;6.32;4.20;;;10.10;99.90;;;;;;4971295;28;20495;-78
2023/03/27 01:39:04;;;;;;;7.53;5.00;;;10.10;99.90;;;;;;4955766;28;20514;-78
2023/03/27 01:41:51;;;;;;;9.90;5.20;;;10.10;99.90;;;;;;4970589;28;20446;-78
2023/03/27 01:44:29;;;;;;;12.25;4.75;;;10.10;99.90;;;;;;4957186;28;20047;-78
2023/03/27 01:47:03;;;;;;;7.53;4.82;;;10.20;99.90;;;;;;4970711;28;20046;-78
2023/03/27 01:49:38;;;;;;;14.02;4.88;;;10.00;99.90;;;;;;4955552;28;20039;-78
2023/03/27 01:52:08;;;;;;;7.38;5.03;;;10.10;99.90;;;;;;4959535;28;20447;-78
2023/03/27 01:54:36;;;;;;;7.90;5.28;;;10.10;99.90;;;;;;4959084;28;20035;-78
2023/03/27 01:57:15;;;;;;;9.88;4.90;;;10.20;99.90;;;;;;4958574;28;20047;-77
2023/03/27 01:59:43;;;;;;;11.70;4.65;;;10.20;99.90;;;;;;4959788;28;20164;-78
2023/03/27 02:02:35;;;;;;;9.93;4.90;;;10.20;99.90;;;;;;4958158;28;20027;-77
2023/03/27 02:05:29;;;;;;;6.97;4.72;;;10.10;99.90;;;;;;4955761;28;20478;-77
2023/03/27 02:08:07;;;;;;;5.90;4.80;;;10.10;99.90;;;;;;4959538;28;20034;-78
2023/03/27 02:10:36;;;;;;;5.65;4.70;;;10.00;99.90;;;;;;5008783;28;20041;-78
2023/03/27 02:13:49;;;;;;;8.95;4.70;;;9.90;99.90;;;;;;5007284;28;20030;-78
2023/03/27 02:16:18;;;;;;;9.88;5.18;;;9.90;99.90;;;;;;5013914;28;20042;-78
2023/03/27 02:18:48;;;;;;;9.40;4.90;;;9.80;99.90;;;;;;5031279;28;20379;-77
2023/03/27 02:21:14;;;;;;;7.05;5.32;;;9.80;99.90;;;;;;5014371;28;20022;-78
2023/03/27 02:23:41;;;;;;;7.00;5.20;;;9.80;99.90;;;;;;5014018;28;20057;-77
2023/03/27 02:26:10;;;;;;;7.07;5.15;;;9.80;99.90;;;;;;5017427;28;20013;-78
2023/03/27 02:28:41;;;;;;;12.23;6.18;;;9.80;99.90;;;;;;5017754;28;20021;-77
2023/03/27 02:31:48;;;;;;;8.32;5.60;;;9.70;99.90;;;;;;5033484;28;20041;-78
2023/03/27 02:34:37;;;;;;;6.18;5.10;;;9.60;99.90;;;;;;5035023;28;20029;-78
2023/03/27 02:37:18;;;;;;;9.40;5.35;;;9.40;99.90;;;;;;5033742;28;20105;-77
2023/03/27 02:39:57;;;;;;;7.70;5.13;;;9.50;99.90;;;;;;5035177;28;20046;-78
2023/03/27 02:43:02;;;;;;;10.27;5.60;;;9.50;99.90;;;;;;5033824;28;20363;-78
2023/03/27 02:45:30;;;;;;;9.68;5.95;;;9.40;99.90;;;;;;5020690;28;20417;-78
2023/03/27 02:48:03;;;;;;;6.53;5.50;;;9.50;99.90;;;;;;5016425;28;20073;-78
2023/03/27 02:50:36;;;;;;;13.60;5.57;;;9.40;99.90;;;;;;5000470;28;20080;-77
2023/03/27 02:53:02;;;;;;;8.63;5.70;;;9.40;99.90;;;;;;4999824;28;20057;-77
2023/03/27 02:55:34;;;;;;;9.38;5.35;;;9.30;99.90;;;;;;4999792;28;20048;-78
2023/03/27 02:58:04;;;;;;;9.30;5.72;;;9.40;99.90;;;;;;5000826;28;20041;-77
2023/03/27 03:00:32;;;;;;;8.65;5.65;;;9.40;99.90;;;;;;4998786;28;20038;-77
2023/03/27 03:03:20;;;;;;;10.00;5.40;;;9.30;99.90;;;;;;4999730;28;20359;-77
2023/03/27 03:05:46;;;;;;;11.32;5.18;;;9.30;99.90;;;;;;5006041;28;20173;-78
2023/03/27 03:08:13;;;;;;;10.25;5.43;;;9.30;99.90;;;;;;5015764;28;20034;-77
2023/03/27 03:10:43;;;;;;;10.50;5.45;;;9.30;99.90;;;;;;5015687;28;20029;-78
2023/03/27 03:13:09;;;;;;;8.07;5.53;;;9.20;99.90;;;;;;4987658;28;20038;-78
2023/03/27 03:15:36;;;;;;;8.20;5.68;;;9.30;99.90;;;;;;4995446;28;20037;-77
2023/03/27 03:18:02;;;;;;;11.57;6.25;;;9.20;99.90;;;;;;4995530;28;20054;-77
2023/03/27 03:20:28;;;;;;;10.80;5.68;;;9.20;99.90;;;;;;4993640;28;20443;-77
2023/03/27 03:22:56;;;;;;;8.32;5.75;;;9.20;99.90;;;;;;4998010;28;20054;-77
2023/03/27 03:25:24;;;;;;;8.30;5.15;;;9.20;99.90;;;;;;5013199;28;20025;-77
2023/03/27 03:27:56;;;;;;;10.18;5.38;;;9.20;99.90;;;;;;5031612;28;20064;-77
2023/03/27 03:30:26;;;;;;;8.95;5.60;;;9.20;99.90;;;;;;5016877;28;20474;-77
2023/03/27 03:32:53;;;;;;;11.60;5.80;;;9.20;99.90;;;;;;5033992;28;20034;-77
2023/03/27 03:35:21;;;;;;;11.88;5.57;;;9.10;99.90;;;;;;5034069;28;20025;-77
2023/03/27 03:37:49;;;;;;;13.57;5.50;;;9.10;99.90;;;;;;5033771;28;20049;-77
2023/03/27 03:40:15;;;;;;;10.48;5.55;;;9.20;99.90;;;;;;5016552;28;20038;-78
2023/03/27 03:42:45;;;;;;;13.18;6.13;;;9.20;99.90;;;;;;5034029;28;20406;-78
2023/03/27 03:45:11;;;;;;;11.32;5.35;;;9.20;99.90;;;;;;5033309;28;20378;-77
2023/03/27 03:47:37;;;;;;;9.55;5.40;;;9.40;99.90;;;;;;5032597;28;20037;-78
2023/03/27 03:50:04;;;;;;;11.20;5.13;;;9.30;99.90;;;;;;5033535;28;20034;-78
2023/03/27 03:52:30;;;;;;;9.90;5.78;;;9.40;99.90;;;;;;5032001;28;20034;-77
2023/03/27 03:54:56;;;;;;;10.10;5.30;;;9.40;99.90;;;;;;5032481;28;20041;-77
2023/03/27 03:57:22;;;;;;;14.73;6.00;;;9.60;99.90;;;;;;5032433;28;20037;-77
2023/03/27 03:59:48;;;;;;;7.32;5.28;;;9.50;99.90;;;;;;5033396;28;20079;-77
2023/03/27 04:02:27;;;;;;;12.60;5.38;;;9.50;99.90;;;;;;5032989;28;20040;-78
2023/03/27 04:04:56;;;;;;;8.70;4.57;;;9.50;99.90;;;;;;5032403;28;20474;-77
2023/03/27 04:07:23;;;;;;;12.90;5.38;;;9.50;99.90;;;;;;5031930;28;20022;-77
2023/03/27 04:09:49;;;;;;;10.88;5.00;;;9.40;99.90;;;;;;4999396;28;20053;-77
2023/03/27 04:12:16;;;;;;;10.82;4.72;;;9.30;99.90;;;;;;5028256;28;20018;-78
2023/03/27 04:14:43;;;;;;;12.60;4.95;;;9.20;99.90;;;;;;5012383;28;20033;-78
2023/03/27 04:17:10;;;;;;;14.25;4.53;;;9.10;99.90;;;;;;5012720;28;20049;-78
2023/03/27 04:19:36;;;;;;;12.15;4.75;;;9.10;99.90;;;;;;5013701;28;20042;-77
2023/03/27 04:22:03;;;;;;;9.18;4.63;;;9.10;99.90;;;;;;5028236;28;20057;-77
2023/03/27 04:24:32;;;;;;;10.45;4.82;;;9.10;99.90;;;;;;5027927;28;20479;-77
2023/03/27 04:27:00;;;;;;;8.18;4.78;;;9.10;99.90;;;;;;5023440;28;20026;-77
2023/03/27 04:29:29;;;;;;;11.45;4.55;;;9.10;99.90;;;;;;5031824;28;20041;-78
2023/03/27 04:31:58;;;;;;;8.48;4.80;;;9.10;99.90;;;;;;5032430;28;20040;-77
2023/03/27 04:34:24;;;;;;;17.10;5.63;;;9.10;99.90;;;;;;5032740;28;20037;-77
2023/03/27 04:36:50;;;;;;;8.90;4.95;;;9.10;99.90;;;;;;5032765;28;20036;-77
2023/03/27 04:39:17;;;;;;;16.23;5.05;;;9.00;99.90;;;;;;5032738;28;20434;-78
2023/03/27 04:41:49;;;;;;;9.35;4.95;;;9.00;99.90;;;;;;5014869;28;20038;-77
2023/03/27 04:44:16;;;;;;;8.30;4.85;;;9.00;99.90;;;;;;5031601;28;20040;-78
2023/03/27 04:46:48;;;;;;;9.10;5.10;;;9.00;99.90;;;;;;5032452;28;20040;-78
2023/03/27 04:49:17;;;;;;;10.10;4.60;;;9.00;99.90;;;;;;5030941;28;20044;-77
2023/03/27 04:51:45;;;;;;;14.95;5.20;;;9.00;99.90;;;;;;5031436;28;20041;-78
2023/03/27 04:54:11;;;;;;;10.55;4.50;;;8.90;99.90;;;;;;5032859;28;20517;-78
2023/03/27 04:56:37;;;;;;;12.43;5.43;;;8.90;99.90;;;;;;5032432;28;20029;-77
2023/03/27 04:59:03;;;;;;;12.82;4.82;;;9.00;99.90;;;;;;5032697;28;20501;-77
2023/03/27 05:01:29;;;;;;;12.85;4.72;;;8.90;99.90;;;;;;5032030;28;20034;-77
2023/03/27 05:03:55;;;;;;;11.98;4.60;;;9.00;99.90;;;;;;5032189;28;20402;-77
2023/03/27 05:06:22;;;;;;;20.30;5.43;;;9.00;99.90;;;;;;5032454;28;20022;-78
2023/03/27 05:08:48;;;;;;;14.75;5.15;;;9.00;99.90;;;;;;5031013;28;20029;-78
2023/03/27 05:11:15;;;;;;;14.48;5.20;;;8.90;99.90;;;;;;5031285;28;20029;-78
2023/03/27 05:13:41;;;;;;;12.82;5.10;;;8.90;99.90;;;;;;5016181;28;20026;-78
2023/03/27 05:16:08;;;;;;;11.45;4.50;;;9.00;99.90;;;;;;5027616;28;20038;-79
2023/03/27 05:18:37;;;;;;;10.35;5.03;;;8.90;99.90;;;;;;5011729;28;20474;-77
2023/03/27 05:21:03;;;;;;;10.20;5.07;;;8.90;99.90;;;;;;5011461;28;20049;-77
2023/03/27 05:23:30;;;;;;;8.70;4.68;;;8.90;99.90;;;;;;5012744;28;20065;-77
2023/03/27 05:25:56;;;;;;;14.15;5.05;;;8.90;99.90;;;;;;5001058;28;20097;-77
2023/03/27 05:28:22;;;;;;;12.60;5.07;;;8.80;99.90;;;;;;5036508;28;20038;-77
2023/03/27 05:30:48;;;;;;;8.48;5.07;;;8.80;99.90;;;;;;5036070;28;20037;-77
2023/03/27 05:33:15;;;;;;;9.55;4.68;;;8.80;99.90;;;;;;5034729;28;20030;-77
2023/03/27 05:35:44;;;;;;;10.75;4.70;;;8.80;99.90;;;;;;5035118;28;20034;-76
2023/03/27 05:38:11;;;;;;;13.85;4.57;;;8.90;99.90;;;;;;5036484;28;20064;-77
2023/03/27 05:40:38;;;;;;;15.55;5.03;;;8.90;99.90;;;;;;5036129;28;20030;-77
2023/03/27 05:43:04;;;;;;;14.15;4.90;;;9.00;99.90;;;;;;5034893;28;20036;-77
2023/03/27 05:45:31;;;;;;;11.50;5.20;;;9.10;99.90;;;;;;5035739;28;20040;-76
2023/03/27 05:47:58;;;;;;;13.65;5.32;;;9.10;99.90;;;;;;5034557;28;20040;-77
2023/03/27 05:50:27;;;;;;;12.70;5.20;;;9.10;99.90;;;;;;5035801;28;20030;-77
2023/03/27 05:53:00;;;;;;;12.02;5.60;;;9.00;99.90;;;;;;5018492;28;20378;-77
2023/03/27 05:55:27;;;;;;;14.27;4.72;;;8.90;99.90;;;;;;5035873;28;20045;-77
2023/03/27 05:57:53;;;;;;;11.45;5.68;;;8.90;99.90;;;;;;5034529;28;20505;-77
2023/03/27 06:00:25;;;;;;;14.57;5.32;;;8.80;99.90;;;;;;5034085;28;20037;-77
2023/03/27 06:02:55;;;;;;;14.52;5.93;;;8.70;99.90;;;;;;5035520;28;20041;-76
2023/03/27 06:05:21;;;;;;;12.13;5.28;;;8.70;99.90;;;;;;5034553;28;20474;-77
2023/03/27 06:07:47;;;;;;;12.10;5.13;;;8.70;99.90;;;;;;5034648;28;20044;-77
2023/03/27 06:10:16;;;;;;;10.07;5.50;;;8.60;99.90;;;;;;5034506;28;20375;-77
2023/03/27 06:12:43;;;;;;;12.57;5.57;;;8.50;99.90;;;;;;5026520;28;20442;-77
2023/03/27 06:15:10;;;;;;;14.18;6.03;;;8.40;99.90;;;;;;5014059;28;20029;-77
2023/03/27 06:17:37;;;;;;;14.55;5.97;;;8.40;99.90;;;;;;5014185;28;20423;-77
2023/03/27 06:20:11;;;;;;;13.75;5.10;;;8.40;99.90;;;;;;5031183;28;20038;-77
2023/03/27 06:22:47;;;;;;;15.35;5.97;;;8.30;99.90;;;;;;5015779;28;20056;-77
2023/03/27 06:25:14;;;;;;;11.27;5.93;;;8.30;99.90;;;;;;5015683;28;20025;-78
2023/03/27 06:27:44;;;;;;;11.85;5.93;;;8.30;99.90;;;;;;5014064;28;20025;-77
2023/03/27 06:30:11;;;;;;;10.43;5.45;;;8.30;99.90;;;;;;5033527;28;20026;-77
2023/03/27 06:32:48;;;;;;;10.50;5.50;;;8.20;99.90;;;;;;5034814;28;20414;-77
2023/03/27 06:35:14;;;;;;;14.70;5.88;;;8.20;99.90;;;;;;5033458;28;20038;-77
2023/03/27 06:37:41;;;;;;;11.05;6.00;;;8.30;99.90;;;;;;5033775;28;20028;-77
2023/03/27 06:40:19;;;;;;;15.80;6.18;;;8.40;99.90;;;;;;5017390;28;20037;-78
2023/03/27 06:42:55;;;;;;;11.02;5.28;;;8.40;99.90;;;;;;5035111;28;20482;-78
2023/03/27 06:45:28;;;;;;;12.13;5.50;;;8.60;99.90;;;;;;5033130;28;20532;-78
2023/03/27 06:47:56;;;;;;;16.23;6.43;;;8.80;99.90;;;;;;5034895;28;20025;-79
2023/03/27 06:50:23;;;;;;;12.35;6.70;;;9.00;99.90;;;;;;5033706;28;20041;-79
2023/03/27 06:52:49;;;;;;;12.30;5.65;;;9.10;99.90;;;;;;5035279;28;20045;-78
2023/03/27 06:55:15;;;;;;;10.73;5.88;;;9.30;99.90;;;;;;5034726;28;20374;-79
2023/03/27 06:57:43;;;;;;;15.32;6.68;;;9.50;99.90;;;;;;5017139;28;20053;-78
2023/03/27 07:00:15;;;;;;;11.68;6.20;;;9.60;99.90;;;;;;5033703;28;20025;-77
2023/03/27 07:02:41;;;;;;;13.05;6.53;;;9.80;99.90;;;;;;5033720;28;20386;-78
2023/03/27 07:05:07;;;;;;;10.13;5.88;;;10.00;99.90;;;;;;5034554;28;20494;-78
2023/03/27 07:07:33;;;;;;;14.52;5.82;;;10.20;99.90;;;;;;5034458;28;20025;-78
2023/03/27 07:09:59;;;;;;;11.20;5.47;;;10.20;99.90;;;;;;5033180;28;20029;-79
2023/03/27 07:12:26;;;;;;;15.65;6.35;;;10.30;99.90;;;;;;5028592;28;20022;-79
2023/03/27 07:14:52;;;;;;;10.50;5.13;;;10.60;99.90;;;;;;5014111;28;20034;-79
2023/03/27 07:17:18;;;;;;;12.00;5.78;;;10.70;99.90;;;;;;5013963;28;20030;-79
2023/03/27 07:19:45;;;;;;;13.60;5.88;;;10.70;99.90;;;;;;5013069;28;20041;-79
2023/03/27 07:22:11;;;;;;;19.17;5.25;;;10.90;99.90;;;;;;5014328;28;20042;-79
2023/03/27 07:24:37;;;;;;;13.00;5.32;;;11.10;99.90;;;;;;5014292;28;20505;-77
2023/03/27 07:27:03;;;;;;;9.35;5.88;;;11.10;99.90;;;;;;5025462;28;20044;-78
2023/03/27 07:29:29;;;;;;;10.77;5.40;;;11.10;99.90;;;;;;5032629;28;20026;-77
2023/03/27 07:31:55;;;;;;;8.57;5.25;;;11.20;99.90;;;;;;5033923;28;20040;-78
2023/03/27 07:34:22;;;;;;;12.48;5.55;;;11.20;99.90;;;;;;5034124;28;20029;-78
2023/03/27 07:36:48;;;;;;;9.75;4.72;;;11.30;99.90;;;;;;5033988;28;20041;-78
2023/03/27 07:39:15;;;;;;;13.05;5.30;;;11.40;99.90;;;;;;5033805;28;20029;-78
2023/03/27 07:41:41;;;;;;;11.45;4.65;;;11.50;99.90;;;;;;5034106;28;20030;-78
2023/03/27 07:44:07;;;;;;;12.60;5.03;;;11.60;99.90;;;;;;5032330;28;20044;-78
2023/03/27 07:46:33;;;;;;;11.38;4.93;;;11.50;99.90;;;;;;5033011;28;20044;-78
2023/03/27 07:48:59;;;;;;;11.90;5.18;;;11.70;99.90;;;;;;5031966;28;20363;-78
2023/03/27 07:51:26;;;;;;;8.52;4.10;;;11.90;99.90;;;;;;5033615;28;20026;-77
2023/03/27 07:53:57;;;;;;;9.65;4.47;;;11.80;99.90;;;;;;5033584;28;20069;-77
2023/03/27 07:56:23;;;;;;;;;;;11.70;99.90;;;;;;5032569;28;20038;-77
2023/03/27 07:58:50;;;;;;;7.80;4.22;;;11.90;99.90;;;;;;5033096;28;19920;-77
2023/03/27 08:01:16;;;;;;;12.13;4.50;;;11.90;99.90;;;;;;5031784;28;20037;-77
2023/03/27 08:03:42;;;;;;;11.13;4.90;;;11.90;99.90;;;;;;5033253;28;20056;-77
2023/03/27 08:06:09;;;;;;;9.65;4.32;;;11.90;99.90;;;;;;5032244;28;20029;-77
2023/03/27 08:08:35;;;;;;;11.82;4.47;;;11.90;99.90;;;;;;5033553;28;20037;-77
2023/03/27 08:11:02;;;;;;;12.00;4.78;;;12.00;99.90;;;;;;5033310;28;20021;-77
2023/03/27 08:13:28;;;;;;;9.07;4.45;;;12.10;99.90;;;;;;5018772;28;20038;-77
2023/03/27 08:16:04;;;;;;;5.35;4.00;;;12.10;99.90;;;;;;5028244;28;20037;-77
2023/03/27 08:18:30;;;;;;;7.90;4.40;;;12.10;99.90;;;;;;5012150;28;20529;-77
2023/03/27 08:20:58;;;;;;;7.47;4.63;;;12.30;99.90;;;;;;5013216;28;20037;-77
2023/03/27 08:23:26;;;;;;;7.93;4.30;;;12.40;99.90;;;;;;5011962;28;20053;-77
2023/03/27 08:25:53;;;;;;;14.25;5.30;;;12.50;99.90;;;;;;5014474;28;20053;-77
2023/03/27 08:28:19;;;;;;;6.68;5.00;;;12.40;99.90;;;;;;5032744;28;20045;-76
2023/03/27 08:30:45;;;;;;;8.73;4.60;;;12.40;99.90;;;;;;5032824;28;20026;-77
2023/03/27 08:33:11;;;;;;;11.73;5.30;;;12.60;99.90;;;;;;5031903;28;20080;-77
2023/03/27 08:35:38;;;;;;;8.60;4.95;;;12.60;99.90;;;;;;5032774;28;20040;-77
2023/03/27 08:38:04;;;;;;;9.05;5.07;;;12.70;99.90;;;;;;5032837;28;20036;-77
2023/03/27 08:40:32;;;;;;;6.57;4.57;;;12.80;99.90;;;;;;5032652;28;20037;-77
2023/03/27 08:43:05;;;;;;;11.57;4.70;;;12.70;99.90;;;;;;5031287;28;20037;-77
2023/03/27 08:45:39;;;;;;;9.32;4.60;;;12.70;99.90;;;;;;5015181;28;20029;-77
2023/03/27 08:48:09;;;;;;;9.98;4.95;;;12.90;99.90;;;;;;5031706;28;20040;-77
2023/03/27 08:50:45;;;;;;;11.63;5.03;;;12.80;99.90;;;;;;5015631;28;20045;-77
2023/03/27 08:53:31;;;;;;;10.75;6.03;;;13.00;99.90;;;;;;5031389;28;20052;-77
2023/03/27 08:55:57;;;;;;;9.55;5.25;;;13.00;99.90;;;;;;5032612;28;20041;-77
2023/03/27 08:58:23;;;;;;;9.48;5.20;;;13.00;99.90;;;;;;5030968;28;20056;-77
2023/03/27 09:01:15;;;;;;;10.63;5.50;;;13.20;99.90;;;;;;5030960;28;20471;-77
2023/03/27 09:04:08;;;;;;;8.77;5.25;;;13.40;99.90;;;;;;5030063;28;20044;-77
2023/03/27 09:06:48;;;;;;;7.40;5.57;;;13.40;99.90;;;;;;4971203;28;20038;-78
2023/03/27 09:09:25;;;;;;;10.02;6.15;;;13.40;99.90;;;;;;4956449;28;20046;-78
2023/03/27 09:11:51;;;;;;;6.88;5.32;;;13.50;99.90;;;;;;4954151;28;20061;-78
2023/03/27 09:14:45;;;;;;;7.50;6.00;;;13.90;99.90;;;;;;4952377;28;20043;-78
2023/03/27 09:17:19;;;;;;;7.57;6.32;;;14.10;99.90;;;;;;4948983;29;20050;-78
2023/03/27 09:20:06;;;;;;;5.78;5.28;;;14.50;99.90;;;;;;4951897;29;20043;-77
2023/03/27 09:22:43;;;;;;;7.55;4.43;;;14.40;99.90;;;;;;4952346;28;20043;-77
2023/03/27 09:25:33;;;;;;;7.75;4.85;;;14.10;99.90;;;;;;4954989;28;20175;-77
2023/03/27 09:28:00;;;;;;;10.15;4.95;;;14.00;99.90;;;;;;4955105;28;20039;-77
2023/03/27 09:30:36;;;;;;;8.38;5.53;;;14.40;99.90;;;;;;4970891;28;20045;-78
2023/03/27 09:33:04;;;;;;;6.43;5.25;;;14.90;99.90;;;;;;4955376;28;20039;-77
2023/03/27 09:35:31;;;;;;;9.48;5.00;;;15.00;99.90;;;;;;4939740;28;20039;-77
2023/03/27 09:38:02;;;;;;;6.60;5.53;;;14.90;99.90;;;;;;4971164;28;20043;-77
2023/03/27 09:40:48;;;;;;;5.63;5.13;;;15.20;99.90;;;;;;4962512;28;20062;-77
2023/03/27 09:43:20;;;;;;;7.25;5.30;;;14.80;99.90;;;;;;4996010;28;20033;-78
2023/03/27 09:45:47;;;;;;;8.10;5.93;;;14.90;99.90;;;;;;5014369;28;20041;-77
2023/03/27 09:48:15;;;;;;;10.82;5.43;;;15.30;99.90;;;;;;5030786;28;20026;-78
2023/03/27 09:50:44;;;;;;;7.35;5.50;;;15.70;99.90;;;;;;5014712;28;20501;-78
2023/03/27 09:53:16;;;;;;;7.50;4.72;;;16.30;99.90;;;;;;5030989;28;20041;-78
2023/03/27 09:56:03;;;;;;;8.85;4.88;;;16.80;99.90;;;;;;5030370;28;20044;-77
2023/03/27 09:58:30;;;;;;;7.93;4.85;;;17.20;99.90;;;;;;5030756;28;20056;-77
2023/03/27 10:01:07;;;;;;;11.50;5.70;;;17.00;99.90;;;;;;5030159;28;20026;-77
2023/03/27 10:03:47;;;;;;;8.95;4.88;;;16.70;99.90;;;;;;5031942;28;20022;-77
2023/03/27 10:06:16;;;;;;;7.78;5.60;;;16.80;99.90;;;;;;5032321;28;20045;-78
2023/03/27 10:08:45;;;;;;;6.10;4.78;;;16.50;99.90;;;;;;5030227;28;20033;-77
2023/03/27 10:11:16;;;;;;;6.63;4.95;;;16.00;99.90;;;;;;5033272;28;20034;-77
2023/03/27 10:13:44;;;;;;;7.25;5.18;;;15.70;99.90;;;;;;5019605;28;20025;-78
2023/03/27 10:16:10;;;;;;;5.90;5.40;;;15.30;99.90;;;;;;5014240;28;20065;-78
2023/03/27 10:18:41;;;;;;;9.60;5.60;;;15.60;99.90;;;;;;5014477;28;20034;-77
2023/03/27 10:21:09;;;;;;;8.48;5.35;;;15.70;99.90;;;;;;5014013;28;20034;-77
2023/03/27 10:23:43;;;;;;;5.22;4.72;;;15.60;99.90;;;;;;5030127;28;20054;-77
2023/03/27 10:26:15;;;;;;;6.28;5.35;;;15.80;99.90;;;;;;5034700;28;20037;-78
2023/03/27 10:28:50;;;;;;;7.28;4.97;;;16.40;99.90;;;;;;5035553;28;20474;-78
2023/03/27 10:31:28;;;;;;;5.75;5.15;;;16.70;99.90;;;;;;5033693;28;20038;-78
2023/03/27 10:33:56;;;;;;;7.88;5.50;;;17.20;99.90;;;;;;5035799;28;20044;-78
2023/03/27 10:36:22;;;;;;;5.43;4.65;;;17.50;99.90;;;;;;5034122;28;20404;-77
2023/03/27 10:38:59;;;;;;;5.35;4.80;;;16.90;99.90;;;;;;5033462;28;20072;-78
2023/03/27 10:41:26;;;;;;;7.40;5.00;;;16.40;99.90;;;;;;5033960;28;20032;-77
2023/03/27 10:43:52;;;;;;;9.27;4.95;;;16.10;99.90;;;;;;5017441;28;20395;-77
2023/03/27 10:46:20;;;;;;;8.50;5.63;;;15.80;99.90;;;;;;5033490;28;20030;-77
2023/03/27 10:49:07;;;;;;;8.07;5.25;;;15.70;99.90;;;;;;5033562;28;20045;-78
2023/03/27 10:52:13;;;;;;;6.88;4.97;;;15.70;99.90;;;;;;5034490;28;20026;-77
2023/03/27 10:55:01;;;;;;;6.75;5.03;;;15.80;99.90;;;;;;5019808;28;20037;-77
2023/03/27 10:57:33;;;;;;;10.32;5.40;;;15.50;99.90;;;;;;5035243;28;20372;-78
2023/03/27 11:00:12;;;;;;;10.65;5.25;;;15.80;99.90;;;;;;5033584;28;20049;-77
2023/03/27 11:02:53;;;;;;;5.80;5.20;;;16.40;99.90;;;;;;5032588;28;20034;-77
2023/03/27 11:05:30;;;;;;;5.53;4.40;;;16.90;99.90;;;;;;5034765;28;20036;-77
2023/03/27 11:08:11;;;;;;;5.20;4.50;;;17.20;99.90;;;;;;5032899;28;20378;-78
2023/03/27 11:10:41;;;;;;;7.53;4.43;;;17.50;99.90;;;;;;5033605;28;20033;-78
2023/03/27 11:13:14;;;;;;;5.97;4.88;;;17.70;99.90;;;;;;5021856;28;20029;-78
2023/03/27 11:15:56;;;;;;;5.82;5.30;;;17.80;99.90;;;;;;5029731;28;20034;-78
2023/03/27 11:18:27;;;;;;;7.60;5.72;;;18.10;99.90;;;;;;5013209;28;20021;-78
2023/03/27 11:20:59;;;;;;;5.35;4.95;;;18.50;99.90;;;;;;5029510;28;20029;-77
2023/03/27 11:23:28;;;;;;;5.70;5.05;;;18.40;99.00;;;;;;5029703;28;20514;-78
2023/03/27 11:25:58;;;;;;;7.05;4.93;;;18.30;99.90;;;;;;5014981;28;20383;-78
2023/03/27 11:29:19;;;;;;;6.38;5.03;;;18.30;99.90;;;;;;5017042;28;20041;-78
2023/03/27 11:31:47;;;;;;;6.72;5.13;;;18.50;99.40;;;;;;5030515;28;20030;-78
2023/03/27 11:34:28;;;;;;;6.00;5.43;;;18.80;99.90;;;;;;5015634;28;20041;-78
2023/03/27 11:37:09;;;;;;;7.75;5.00;;;19.00;99.80;;;;;;5016169;28;20034;-77
2023/03/27 11:39:35;;;;;;;;;;;19.10;99.60;;;;;;5016959;28;20053;-77
2023/03/27 11:42:09;;;;;;;7.55;5.00;;;19.40;98.70;;;;;;5031810;28;19959;-78
2023/03/27 11:44:35;;;;;;;7.05;5.07;;;18.70;97.40;;;;;;5015515;28;20117;-77
2023/03/27 11:47:25;;;;;;;7.38;5.18;;;17.90;98.00;;;;;;5030234;28;20038;-77
2023/03/27 11:49:56;;;;;;;7.88;5.55;;;17.60;99.50;;;;;;5015274;28;20537;-77
2023/03/27 11:52:47;;;;;;;6.18;5.50;;;17.70;98.20;;;;;;5015103;28;20041;-77
2023/03/27 11:55:37;;;;;;;5.85;5.35;;;17.60;98.40;;;;;;5031340;28;20137;-77
2023/03/27 11:58:41;;;;;;;5.70;4.93;;;17.60;98.20;;;;;;5016258;28;20028;-77
2023/03/27 12:01:38;;;;;;;6.43;4.50;;;17.50;98.60;;;;;;5017032;28;20423;-77
2023/03/27 12:04:42;;;;;;;5.57;4.60;;;17.10;99.60;;;;;;5016048;28;20383;-77
2023/03/27 12:07:17;;;;;;;9.65;5.28;;;17.70;99.00;;;;;;4991888;28;20042;-77
2023/03/27 12:09:59;;;;;;;4.78;4.07;;;18.30;97.90;;;;;;4992083;28;20062;-77
2023/03/27 12:12:52;;;;;;;5.80;4.75;;;17.40;98.00;;;;;;4967059;28;20046;-77
2023/03/27 12:15:40;;;;;;;7.35;4.65;;;17.40;99.00;;;;;;4968693;28;20044;-77
2023/03/27 12:18:40;;;;;;;9.77;4.85;;;16.90;98.00;;;;;;4968243;28;20054;-77
2023/03/27 12:21:28;;;;;;;8.95;4.88;;;16.50;98.80;;;;;;4955970;28;20094;-76
2023/03/27 12:24:12;;;;;;;7.35;4.78;;;16.50;98.90;;;;;;4964368;28;20051;-76
2023/03/27 12:26:48;;;;;;;7.28;5.15;;;16.00;99.00;;;;;;4979782;28;20384;-77
2023/03/27 12:29:39;;;;;;;8.20;4.85;;;16.00;99.90;;;;;;4991479;28;20427;-77
2023/03/27 12:32:14;;;;;;;6.95;5.20;;;16.10;99.90;;;;;;4977414;28;20045;-76
2023/03/27 12:34:58;;;;;;;8.88;4.57;;;16.20;99.40;;;;;;4974586;28;20199;-76
2023/03/27 12:37:37;;;;;;;6.40;5.03;;;15.80;99.10;;;;;;4976045;28;20046;-76
2023/03/27 12:40:12;;;;;;;7.22;4.63;;;15.60;99.60;;;;;;4976673;28;20030;-77
2023/03/27 12:42:41;;;;;;;6.07;4.68;;;15.60;99.60;;;;;;5016162;28;20045;-77
2023/03/27 12:45:14;;;;;;;6.93;5.32;;;15.80;99.90;;;;;;5032336;28;20025;-77
2023/03/27 12:47:43;;;;;;;8.38;5.38;;;16.30;99.90;;;;;;5032285;28;20645;-77
2023/03/27 12:50:18;;;;;;;7.15;4.53;;;16.90;99.90;;;;;;5015163;28;20406;-77
2023/03/27 12:52:44;;;;;;;6.75;4.95;;;17.20;98.80;;;;;;5032614;28;20021;-77
2023/03/27 12:55:17;;;;;;;5.10;4.70;;;17.30;99.10;;;;;;5014927;28;20048;-77
2023/03/27 12:57:43;;;;;;;5.07;4.57;;;16.90;97.80;;;;;;5032958;28;20038;-77
2023/03/27 13:00:24;;;;;;;6.40;4.28;;;16.90;99.30;;;;;;5030980;28;20072;-77
2023/03/27 13:03:12;;;;;;;6.95;5.03;;;17.10;99.20;;;;;;5014967;28;20026;-77
2023/03/27 13:06:35;;;;;;;5.78;5.15;;;17.40;98.70;;;;;;5032560;28;20378;-77
2023/03/27 13:09:04;;;;;;;5.78;4.80;;;18.00;98.50;;;;;;5029979;28;20056;-78
2023/03/27 13:12:08;;;;;;;5.82;5.32;;;18.40;97.90;;;;;;5014034;28;20412;-77
2023/03/27 13:14:44;;;;;;;9.27;5.32;;;18.60;96.80;;;;;;4970870;28;20047;-77
2023/03/27 13:17:45;;;;;;;5.88;5.35;;;18.30;96.40;;;;;;4970444;28;20076;-77